createdAt,value
2022-11-06T00:01:12.282Z,14.25
2022-11-06T00:03:39.478Z,14.24
2022-11-06T00:06:26.438Z,14.17
2022-11-06T00:08:53.308Z,14.14
2022-11-06T00:11:20.349Z,14.10
2022-11-06T00:13:52.219Z,14.18
2022-11-06T00:16:19.980Z,14.21
2022-11-06T00:18:47.576Z,14.17
2022-11-06T00:21:28.285Z,14.19
2022-11-06T00:23:57.383Z,14.15
2022-11-06T00:26:26.248Z,14.20
2022-11-06T00:28:53.529Z,14.07
2022-11-06T00:31:25.802Z,14.12
2022-11-06T00:33:54.344Z,14.06
2022-11-06T00:36:22.758Z,14.10
2022-11-06T00:38:56.365Z,14.11
2022-11-06T00:41:24.079Z,14.15
2022-11-06T00:43:56.792Z,14.05
2022-11-06T00:46:24.007Z,14.12
2022-11-06T00:48:54.515Z,14.08
2022-11-06T00:51:27.114Z,14.17
2022-11-06T00:53:56.025Z,14.17
2022-11-06T00:56:23.081Z,14.07
2022-11-06T00:58:50.247Z,14.14
2022-11-06T01:01:25.399Z,14.20
2022-11-06T01:03:54.962Z,14.07
2022-11-06T01:06:23.432Z,14.03
2022-11-06T01:08:51.432Z,14.19
2022-11-06T01:11:21.755Z,14.19
2022-11-06T01:13:55.298Z,14.13
2022-11-06T01:16:23.255Z,14.01
2022-11-06T01:18:50.346Z,14.04
2022-11-06T01:21:22.903Z,14.02
2022-11-06T01:23:54.779Z,14.06
2022-11-06T01:26:37.282Z,14.09
2022-11-06T01:31:52.330Z,14.05
2022-11-06T01:34:19.004Z,13.96
2022-11-06T01:36:46.714Z,14.08
2022-11-06T01:39:15.494Z,13.99
2022-11-06T01:41:45.586Z,14.05
2022-11-06T01:44:43.371Z,14.04
2022-11-06T01:47:28.332Z,13.98
2022-11-06T01:50:03.676Z,14.01
2022-11-06T01:52:32.601Z,13.83
2022-11-06T01:55:11.086Z,13.72
2022-11-06T01:57:38.346Z,13.96
2022-11-06T02:00:06.680Z,14.01
2022-11-06T02:02:34.647Z,14.03
2022-11-06T02:05:01.678Z,14.01
2022-11-06T02:07:28.817Z,14.05
2022-11-06T02:09:55.484Z,14.00
2022-11-06T02:12:54.285Z,14.00
2022-11-06T02:15:54.205Z,14.00
2022-11-06T02:18:39.261Z,14.03
2022-11-06T02:21:29.546Z,14.01
2022-11-06T02:24:05.401Z,14.02
2022-11-06T02:27:12.535Z,14.02
2022-11-06T02:29:52.278Z,13.91
2022-11-06T02:32:27.877Z,13.96
2022-11-06T02:34:56.590Z,13.95
2022-11-06T02:37:46.046Z,13.93
2022-11-06T02:40:14.980Z,13.95
2022-11-06T02:43:14.385Z,14.01
2022-11-06T02:45:58.416Z,13.93
2022-11-06T02:48:33.898Z,13.95
2022-11-06T02:51:05.589Z,13.96
2022-11-06T02:53:33.019Z,13.94
2022-11-06T02:56:10.366Z,13.99
2022-11-06T02:58:52.136Z,13.91
2022-11-06T03:01:29.902Z,13.94
2022-11-06T03:04:03.859Z,13.91
2022-11-06T03:06:39.634Z,13.96
2022-11-06T03:09:14.574Z,13.89
2022-11-06T03:11:46.369Z,13.86
2022-11-06T03:14:19.908Z,13.94
2022-11-06T03:16:49.133Z,13.90
2022-11-06T03:19:29.959Z,13.87
2022-11-06T03:22:07.796Z,13.83
2022-11-06T03:24:58.951Z,13.81
2022-11-06T03:28:06.431Z,13.83
2022-11-06T03:30:36.613Z,13.89
2022-11-06T03:33:15.394Z,13.85
2022-11-06T03:35:53.355Z,13.81
2022-11-06T03:38:28.338Z,13.88
2022-11-06T03:41:01.043Z,13.90
2022-11-06T03:43:32.155Z,13.79
2022-11-06T03:46:01.692Z,13.84
2022-11-06T03:48:42.093Z,13.83
2022-11-06T03:51:20.214Z,13.79
2022-11-06T03:53:52.101Z,13.85
2022-11-06T03:56:26.421Z,13.78
2022-11-06T03:58:55.947Z,13.77
2022-11-06T04:01:28.273Z,13.84
2022-11-06T04:03:59.947Z,13.69
2022-11-06T04:06:32.668Z,13.78
2022-11-06T04:09:22.582Z,13.78
2022-11-06T04:12:09.280Z,13.78
2022-11-06T04:14:39.642Z,13.79
2022-11-06T04:17:10.315Z,13.81
2022-11-06T04:19:37.130Z,13.73
2022-11-06T04:22:31.876Z,13.74
2022-11-06T04:25:44.311Z,13.65
2022-11-06T04:28:41.845Z,13.67
2022-11-06T04:31:53.902Z,13.58
2022-11-06T04:34:34.961Z,13.56
2022-11-06T04:37:12.006Z,13.82
2022-11-06T04:39:41.153Z,13.80
2022-11-06T04:42:28.196Z,13.82
2022-11-06T04:45:20.914Z,13.70
2022-11-06T04:47:48.198Z,13.71
2022-11-06T04:50:17.436Z,13.71
2022-11-06T04:52:45.198Z,13.69
2022-11-06T04:55:11.960Z,13.72
2022-11-06T04:57:38.512Z,13.63
2022-11-06T05:00:06.512Z,13.69
2022-11-06T05:02:33.236Z,13.70
2022-11-06T05:04:59.743Z,13.67
2022-11-06T05:07:26.350Z,13.70
2022-11-06T05:09:53.022Z,13.72
2022-11-06T05:12:19.633Z,13.65
2022-11-06T05:14:46.185Z,13.72
2022-11-06T05:17:12.917Z,13.73
2022-11-06T05:19:39.575Z,13.70
2022-11-06T05:22:24.635Z,13.64
2022-11-06T05:24:51.296Z,13.70
2022-11-06T05:27:17.984Z,13.72
2022-11-06T05:29:44.600Z,13.70
2022-11-06T05:32:11.330Z,13.60
2022-11-06T05:34:38.520Z,13.66
2022-11-06T05:37:05.320Z,13.59
2022-11-06T05:39:31.859Z,13.73
2022-11-06T05:41:58.450Z,13.59
2022-11-06T05:44:25.091Z,13.68
2022-11-06T05:46:51.778Z,13.60
2022-11-06T05:49:19.254Z,13.61
2022-11-06T05:51:46.629Z,13.57
2022-11-06T05:54:13.444Z,13.70
2022-11-06T05:56:40.315Z,13.63
2022-11-06T05:59:07.094Z,13.67
2022-11-06T06:01:33.902Z,13.39
2022-11-06T06:04:00.654Z,13.35
2022-11-06T06:06:27.435Z,13.54
2022-11-06T06:08:53.944Z,13.62
2022-11-06T06:11:20.485Z,13.58
2022-11-06T06:13:48.378Z,13.59
2022-11-06T06:16:15.868Z,13.65
2022-11-06T06:18:42.687Z,13.66
2022-11-06T06:21:09.327Z,13.67
2022-11-06T06:23:36.096Z,13.64
2022-11-06T06:26:02.998Z,13.63
2022-11-06T06:28:29.646Z,13.62
2022-11-06T06:31:01.301Z,13.56
2022-11-06T06:33:28.650Z,13.61
2022-11-06T06:35:55.190Z,13.55
2022-11-06T06:38:22.079Z,13.59
2022-11-06T06:40:48.850Z,13.65
2022-11-06T06:43:15.567Z,13.61
2022-11-06T06:45:42.374Z,13.59
2022-11-06T06:48:09.510Z,13.63
2022-11-06T06:50:36.124Z,13.61
2022-11-06T06:53:02.865Z,13.57
2022-11-06T06:55:29.558Z,13.49
2022-11-06T06:58:05.986Z,13.58
2022-11-06T07:00:32.938Z,13.54
2022-11-06T07:03:01.284Z,13.61
2022-11-06T07:05:27.930Z,13.57
2022-11-06T07:07:54.892Z,13.67
2022-11-06T07:10:21.713Z,13.61
2022-11-06T07:12:48.873Z,13.63
2022-11-06T07:15:15.643Z,13.55
2022-11-06T07:17:42.416Z,13.56
2022-11-06T07:20:10.079Z,13.59
2022-11-06T07:22:37.865Z,13.58
2022-11-06T07:25:06.222Z,13.50
2022-11-06T07:27:33.633Z,13.51
2022-11-06T07:30:00.689Z,13.50
2022-11-06T07:32:28.549Z,13.44
2022-11-06T07:34:55.866Z,13.53
2022-11-06T07:37:22.771Z,13.52
2022-11-06T07:39:49.468Z,13.51
2022-11-06T07:42:16.383Z,13.54
2022-11-06T07:44:56.340Z,13.54
2022-11-06T07:47:23.074Z,13.51
2022-11-06T07:49:51.115Z,13.53
2022-11-06T07:52:18.035Z,13.59
2022-11-06T07:54:47.466Z,13.53
2022-11-06T07:57:14.438Z,13.51
2022-11-06T07:59:42.498Z,13.51
2022-11-06T08:02:13.243Z,13.48
2022-11-06T08:04:40.229Z,13.45
2022-11-06T08:07:07.170Z,13.46
2022-11-06T08:09:33.767Z,13.46
2022-11-06T08:12:00.504Z,13.31
2022-11-06T08:14:27.397Z,13.43
2022-11-06T08:16:55.529Z,13.45
2022-11-06T08:19:22.172Z,13.53
2022-11-06T08:21:51.796Z,13.61
2022-11-06T08:24:21.947Z,13.72
2022-11-06T08:26:49.149Z,13.81
2022-11-06T08:29:16.143Z,13.85
2022-11-06T08:31:43.947Z,13.86
2022-11-06T08:34:10.562Z,13.89
2022-11-06T08:36:40.508Z,14.03
2022-11-06T08:39:07.350Z,14.14
2022-11-06T08:41:34.337Z,14.25
2022-11-06T08:44:00.875Z,14.37
2022-11-06T08:46:27.525Z,14.46
2022-11-06T08:48:54.111Z,14.55
2022-11-06T08:51:20.992Z,14.56
2022-11-06T08:53:47.831Z,14.66
2022-11-06T08:56:14.645Z,14.79
2022-11-06T08:58:41.271Z,14.74
2022-11-06T09:01:08.055Z,14.97
2022-11-06T09:03:34.770Z,15.08
2022-11-06T09:06:01.460Z,15.18
2022-11-06T09:08:28.071Z,15.25
2022-11-06T09:10:58.686Z,15.29
2022-11-06T09:13:26.446Z,15.37
2022-11-06T09:15:53.103Z,15.36
2022-11-06T09:18:19.716Z,15.33
2022-11-06T09:20:46.548Z,15.34
2022-11-06T09:23:13.540Z,15.33
2022-11-06T09:25:40.284Z,15.35
2022-11-06T09:28:06.917Z,15.35
2022-11-06T09:30:33.646Z,15.34
2022-11-06T09:33:02.442Z,15.32
2022-11-06T09:35:33.210Z,15.30
2022-11-06T09:38:04.564Z,15.30
2022-11-06T09:40:37.493Z,15.27
2022-11-06T09:43:16.512Z,15.30
2022-11-06T09:45:44.455Z,15.34
2022-11-06T09:48:10.987Z,15.31
2022-11-06T09:51:19.934Z,15.33
2022-11-06T09:53:56.234Z,15.34
2022-11-06T09:56:28.407Z,15.28
2022-11-06T09:58:55.645Z,15.31
2022-11-06T10:01:27.663Z,15.38
2022-11-06T10:03:59.822Z,15.44
2022-11-06T10:06:28.193Z,15.46
2022-11-06T10:09:02.309Z,15.51
2022-11-06T10:11:49.337Z,15.54
2022-11-06T10:14:31.473Z,15.53
2022-11-06T10:17:00.723Z,15.59
2022-11-06T10:20:02.453Z,15.65
2022-11-06T10:22:39.079Z,15.73
2022-11-06T10:25:22.515Z,15.71
2022-11-06T10:28:02.335Z,15.74
2022-11-06T10:31:04.667Z,15.78
2022-11-06T10:33:54.689Z,15.82
2022-11-06T10:36:27.168Z,15.82
2022-11-06T10:38:55.409Z,15.85
2022-11-06T10:41:30.733Z,15.91
2022-11-06T10:44:03.047Z,15.90
2022-11-06T10:46:40.882Z,15.93
2022-11-06T10:49:27.690Z,15.91
2022-11-06T10:52:12.262Z,15.95
2022-11-06T10:55:22.499Z,16.04
2022-11-06T10:57:58.584Z,16.08
2022-11-06T11:00:28.726Z,16.06
2022-11-06T11:03:01.692Z,16.05
2022-11-06T11:05:44.357Z,16.06
2022-11-06T11:08:34.309Z,16.13
2022-11-06T11:11:14.197Z,16.10
2022-11-06T11:13:45.034Z,16.18
2022-11-06T11:16:16.976Z,16.17
2022-11-06T11:18:44.619Z,16.18
2022-11-06T11:21:18.596Z,16.19
2022-11-06T11:23:46.245Z,16.21
2022-11-06T11:26:18.627Z,16.22
2022-11-06T11:28:52.607Z,16.30
2022-11-06T11:31:19.880Z,16.34
2022-11-06T11:33:58.279Z,16.29
2022-11-06T11:36:25.203Z,16.27
2022-11-06T11:38:52.629Z,16.30
2022-11-06T11:41:19.263Z,16.32
2022-11-06T11:44:06.370Z,16.37
2022-11-06T11:46:33.885Z,16.34
2022-11-06T11:49:02.270Z,16.39
2022-11-06T11:51:42.889Z,16.43
2022-11-06T11:54:09.410Z,16.45
2022-11-06T11:57:04.017Z,16.53
2022-11-06T11:59:44.847Z,16.56
2022-11-06T12:02:20.850Z,16.60
2022-11-06T12:05:02.187Z,16.68
2022-11-06T12:07:46.147Z,16.67
2022-11-06T12:10:25.461Z,16.73
2022-11-06T12:12:53.823Z,16.75
2022-11-06T12:15:35.142Z,16.85
2022-11-06T12:18:11.828Z,16.85
2022-11-06T12:20:56.823Z,16.92
2022-11-06T12:23:47.742Z,16.94
2022-11-06T12:26:38.712Z,16.92
2022-11-06T12:29:34.857Z,16.88
2022-11-06T12:32:30.899Z,16.89
2022-11-06T12:35:27.901Z,16.82
2022-11-06T12:38:25.735Z,16.82
2022-11-06T12:40:59.427Z,16.81
2022-11-06T12:43:31.492Z,16.79
2022-11-06T12:46:00.911Z,16.84
2022-11-06T12:48:41.384Z,16.80
2022-11-06T12:51:45.536Z,16.77
2022-11-06T12:54:52.187Z,16.77
2022-11-06T12:57:33.590Z,16.78
2022-11-06T13:00:09.885Z,16.78
2022-11-06T13:02:45.130Z,16.77
2022-11-06T13:05:20.758Z,16.78
2022-11-06T13:08:03.842Z,16.74
2022-11-06T13:10:42.614Z,16.75
2022-11-06T13:13:42.548Z,16.79
2022-11-06T13:16:38.444Z,16.75
2022-11-06T13:19:20.902Z,16.79
2022-11-06T13:21:50.459Z,16.79
2022-11-06T13:24:34.160Z,16.78
2022-11-06T13:27:10.969Z,16.77
2022-11-06T13:29:38.836Z,16.80
2022-11-06T13:32:12.943Z,16.85
2022-11-06T13:34:43.060Z,16.92
2022-11-06T13:37:17.480Z,16.94
2022-11-06T13:39:50.078Z,17.02
2022-11-06T13:42:26.960Z,17.01
2022-11-06T13:44:55.601Z,17.00
2022-11-06T13:47:32.628Z,17.10
2022-11-06T13:50:13.104Z,17.17
2022-11-06T13:53:05.132Z,17.14
2022-11-06T13:56:00.095Z,17.07
2022-11-06T13:58:35.897Z,17.07
2022-11-06T14:01:40.434Z,17.01
2022-11-06T14:04:28.094Z,16.98
2022-11-06T14:06:58.511Z,16.97
2022-11-06T14:09:30.486Z,16.97
2022-11-06T14:12:01.358Z,16.99
2022-11-06T14:14:31.838Z,16.95
2022-11-06T14:17:16.692Z,16.95
2022-11-06T14:20:20.856Z,16.95
2022-11-06T14:22:47.511Z,16.95
2022-11-06T14:25:40.195Z,16.92
2022-11-06T14:28:08.855Z,16.88
2022-11-06T14:31:10.487Z,16.86
2022-11-06T14:33:42.972Z,16.85
2022-11-06T14:36:14.645Z,16.86
2022-11-06T14:38:42.665Z,16.84
2022-11-06T14:41:33.972Z,16.81
2022-11-06T14:44:06.600Z,16.88
2022-11-06T14:46:33.546Z,16.83
2022-11-06T14:49:21.603Z,16.84
2022-11-06T14:51:59.897Z,16.86
2022-11-06T14:54:26.621Z,16.87
2022-11-06T14:56:55.103Z,16.81
2022-11-06T14:59:29.612Z,16.83
2022-11-06T15:02:03.393Z,16.87
2022-11-06T15:04:33.654Z,16.81
2022-11-06T15:07:58.219Z,16.83
2022-11-06T15:10:52.460Z,16.86
2022-11-06T15:13:19.978Z,16.86
2022-11-06T15:15:51.100Z,16.88
2022-11-06T15:18:22.844Z,16.91
2022-11-06T15:20:59.933Z,16.88
2022-11-06T15:23:47.913Z,16.89
2022-11-06T15:26:33.948Z,16.93
2022-11-06T15:29:00.665Z,16.99
2022-11-06T15:31:29.992Z,17.03
2022-11-06T15:36:43.485Z,17.13
2022-11-06T15:39:31.958Z,17.20
2022-11-06T15:41:59.407Z,17.21
2022-11-06T15:44:46.412Z,17.18
2022-11-06T15:47:23.514Z,17.10
2022-11-06T15:50:12.855Z,17.09
2022-11-06T15:52:40.761Z,17.08
2022-11-06T15:55:32.667Z,17.07
2022-11-06T15:58:17.832Z,17.08
2022-11-06T16:00:45.637Z,17.09
2022-11-06T16:03:18.063Z,17.11
2022-11-06T16:05:46.011Z,17.10
2022-11-06T16:08:16.180Z,17.10
2022-11-06T16:10:44.639Z,17.11
2022-11-06T16:13:17.266Z,17.08
2022-11-06T16:15:56.983Z,17.09
2022-11-06T16:18:46.107Z,17.11
2022-11-06T16:21:18.652Z,17.14
2022-11-06T16:23:49.999Z,17.09
2022-11-06T16:26:24.535Z,17.12
2022-11-06T16:28:53.515Z,17.13
2022-11-06T16:31:25.439Z,17.10
2022-11-06T16:33:55.645Z,17.10
2022-11-06T16:36:22.907Z,17.08
2022-11-06T16:38:49.633Z,17.12
2022-11-06T16:41:39.702Z,17.13
2022-11-06T16:44:38.417Z,17.12
2022-11-06T16:47:04.933Z,17.12
2022-11-06T16:49:35.526Z,17.11
2022-11-06T16:52:33.488Z,17.07
2022-11-06T16:55:16.698Z,17.09
2022-11-06T16:57:57.466Z,17.10
2022-11-06T17:00:27.352Z,17.06
2022-11-06T17:03:07.074Z,17.08
2022-11-06T17:05:36.791Z,17.05
2022-11-06T17:08:18.926Z,17.08
2022-11-06T17:10:46.179Z,17.19
2022-11-06T17:13:27.889Z,17.23
2022-11-06T17:15:57.684Z,17.23
2022-11-06T17:18:31.503Z,17.24
2022-11-06T17:21:06.494Z,17.27
2022-11-06T17:23:34.379Z,17.27
2022-11-06T17:26:10.850Z,17.26
2022-11-06T17:28:37.618Z,17.26
2022-11-06T17:31:04.709Z,17.30
2022-11-06T17:33:31.266Z,17.31
2022-11-06T17:35:57.931Z,17.31
2022-11-06T17:38:24.618Z,17.31
2022-11-06T17:40:51.846Z,17.28
2022-11-06T17:43:18.401Z,17.34
2022-11-06T17:45:47.979Z,17.31
2022-11-06T17:48:15.397Z,17.22
2022-11-06T17:51:14.363Z,17.18
2022-11-06T17:53:40.984Z,17.19
2022-11-06T17:56:07.772Z,17.15
2022-11-06T17:58:34.705Z,17.14
2022-11-06T18:01:09.506Z,17.12
2022-11-06T18:03:45.272Z,17.09
2022-11-06T18:06:14.222Z,17.10
2022-11-06T18:08:41.176Z,17.07
2022-11-06T18:11:08.474Z,17.03
2022-11-06T18:13:35.998Z,17.02
2022-11-06T18:16:03.435Z,16.95
2022-11-06T18:18:30.954Z,16.90
2022-11-06T18:20:57.462Z,16.88
2022-11-06T18:23:24.240Z,16.82
2022-11-06T18:25:57.682Z,16.79
2022-11-06T18:28:25.023Z,16.77
2022-11-06T18:30:52.521Z,16.74
2022-11-06T18:33:19.807Z,16.78
2022-11-06T18:35:46.867Z,16.73
2022-11-06T18:38:14.925Z,16.77
2022-11-06T18:40:45.036Z,16.76
2022-11-06T18:43:16.148Z,16.71
2022-11-06T18:45:42.752Z,16.68
2022-11-06T18:48:09.428Z,16.65
2022-11-06T18:50:36.741Z,16.64
2022-11-06T18:53:04.207Z,16.59
2022-11-06T18:55:31.629Z,16.57
2022-11-06T18:57:58.714Z,16.55
2022-11-06T19:00:26.113Z,16.55
2022-11-06T19:02:52.839Z,16.55
2022-11-06T19:05:19.679Z,16.55
2022-11-06T19:07:51.194Z,16.55
2022-11-06T19:10:19.594Z,16.53
2022-11-06T19:12:46.160Z,16.55
2022-11-06T19:15:13.047Z,16.56
2022-11-06T19:17:39.752Z,16.63
2022-11-06T19:20:08.575Z,16.62
2022-11-06T19:22:39.014Z,16.58
2022-11-06T19:25:06.160Z,16.64
2022-11-06T19:27:33.423Z,16.68
2022-11-06T19:30:00.085Z,16.67
2022-11-06T19:32:26.785Z,16.67
2022-11-06T19:34:53.565Z,16.67
2022-11-06T19:37:20.252Z,16.70
2022-11-06T19:39:46.885Z,16.74
2022-11-06T19:42:13.509Z,16.72
2022-11-06T19:44:40.540Z,16.69
2022-11-06T19:47:07.189Z,16.73
2022-11-06T19:49:33.825Z,16.73
2022-11-06T19:52:42.220Z,16.74
2022-11-06T19:54:47.145Z,16.76
2022-11-06T19:57:27.803Z,16.80
2022-11-06T19:59:56.996Z,16.78
2022-11-06T20:02:23.901Z,16.76
2022-11-06T20:04:50.786Z,16.75
2022-11-06T20:07:17.478Z,16.75
2022-11-06T20:09:44.430Z,16.71
2022-11-06T20:12:14.116Z,16.77
2022-11-06T20:14:40.882Z,16.76
2022-11-06T20:17:07.681Z,16.76
2022-11-06T20:19:34.265Z,16.82
2022-11-06T20:22:02.463Z,16.77
2022-11-06T20:24:29.152Z,16.73
2022-11-06T20:26:55.792Z,16.74
2022-11-06T20:29:22.409Z,16.80
2022-11-06T20:31:49.026Z,16.76
2022-11-06T20:34:16.125Z,16.75
2022-11-06T20:36:42.641Z,16.78
2022-11-06T20:39:09.737Z,16.72
2022-11-06T20:41:36.386Z,16.75
2022-11-06T20:44:04.226Z,16.78
2022-11-06T20:46:30.930Z,16.77
2022-11-06T20:48:58.294Z,16.80
2022-11-06T20:51:27.158Z,16.78
2022-11-06T20:53:54.173Z,16.80
2022-11-06T20:56:24.459Z,16.79
2022-11-06T20:58:54.079Z,16.76
2022-11-06T21:01:23.711Z,16.73
2022-11-06T21:03:52.067Z,16.83
2022-11-06T21:06:20.856Z,16.84
2022-11-06T21:08:48.064Z,16.83
2022-11-06T21:11:18.027Z,16.80
2022-11-06T21:13:46.997Z,16.72
2022-11-06T21:16:16.311Z,16.71
2022-11-06T21:18:43.274Z,16.72
2022-11-06T21:21:15.485Z,16.69
2022-11-06T21:23:42.460Z,16.71
2022-11-06T21:26:22.222Z,16.70
2022-11-06T21:28:49.624Z,16.68
2022-11-06T21:31:21.580Z,16.68
2022-11-06T21:33:50.087Z,16.73
2022-11-06T21:36:22.316Z,16.73
2022-11-06T21:38:49.537Z,16.70
2022-11-06T21:41:20.875Z,16.71
2022-11-06T21:43:50.706Z,16.74
2022-11-06T21:46:18.617Z,16.68
2022-11-06T21:48:47.457Z,16.70
2022-11-06T21:51:20.663Z,16.67
2022-11-06T21:54:07.049Z,16.67
2022-11-06T21:56:34.784Z,16.66
2022-11-06T21:59:02.875Z,16.65
2022-11-06T22:01:31.065Z,16.64
2022-11-06T22:03:58.791Z,16.64
2022-11-06T22:06:27.299Z,16.68
2022-11-06T22:08:55.950Z,16.62
2022-11-06T22:11:26.219Z,16.65
2022-11-06T22:13:54.269Z,16.64
2022-11-06T22:16:24.325Z,16.49
2022-11-06T22:18:51.303Z,16.41
2022-11-06T22:21:23.596Z,16.35
2022-11-06T22:23:50.980Z,16.31
2022-11-06T22:26:20.623Z,16.31
2022-11-06T22:28:47.603Z,16.25
2022-11-06T22:31:14.301Z,16.34
2022-11-06T22:33:40.988Z,16.47
2022-11-06T22:36:10.964Z,16.33
2022-11-06T22:38:38.836Z,16.38
2022-11-06T22:41:08.327Z,16.35
2022-11-06T22:43:35.593Z,16.27
2022-11-06T22:46:06.016Z,16.34
2022-11-06T22:48:33.129Z,16.33
2022-11-06T22:51:17.679Z,16.25
2022-11-06T22:53:44.618Z,16.25
2022-11-06T22:56:12.687Z,16.23
2022-11-06T22:58:40.788Z,16.12
2022-11-06T23:01:08.696Z,16.16
2022-11-06T23:03:35.521Z,16.07
2022-11-06T23:06:07.294Z,16.13
2022-11-06T23:08:36.051Z,16.11
2022-11-06T23:11:08.599Z,16.06
2022-11-06T23:13:36.052Z,16.04
2022-11-06T23:16:08.331Z,16.03
2022-11-06T23:18:35.486Z,15.94
2022-11-06T23:21:02.169Z,16.00
2022-11-06T23:23:28.879Z,15.97
2022-11-06T23:25:55.410Z,15.84
2022-11-06T23:28:21.924Z,15.80
2022-11-06T23:30:48.683Z,15.80
2022-11-06T23:33:15.612Z,15.75
2022-11-06T23:35:42.396Z,15.73
2022-11-06T23:38:09.069Z,15.73
2022-11-06T23:40:35.736Z,15.68
2022-11-06T23:43:02.435Z,15.68
2022-11-06T23:45:47.766Z,15.66
2022-11-06T23:48:16.626Z,15.53
2022-11-06T23:50:47.076Z,15.58
2022-11-06T23:53:15.410Z,15.56
2022-11-06T23:55:42.373Z,15.50
2022-11-06T23:58:09.179Z,15.48
